sensor_id;sensor_type;location;lat;lon;timestamp;pressure;altitude;pressure_sealevel;temperature;humidity
75146;BME280;63641;46.526;24.612;2023-03-14T00:01:29;97159.34;;;0.29;58.49
75146;BME280;63641;46.526;24.612;2023-03-14T00:03:56;97166.53;;;0.29;58.31
75146;BME280;63641;46.526;24.612;2023-03-14T00:06:23;97144.56;;;0.15;58.58
75146;BME280;63641;46.526;24.612;2023-03-14T00:08:50;97150.25;;;0.18;58.66
75146;BME280;63641;46.526;24.612;2023-03-14T00:11:20;97163.13;;;0.21;58.83
75146;BME280;63641;46.526;24.612;2023-03-14T00:13:50;97149.22;;;0.19;58.59
75146;BME280;63641;46.526;24.612;2023-03-14T00:16:18;97159.22;;;0.24;58.52
75146;BME280;63641;46.526;24.612;2023-03-14T00:18:45;97151.47;;;0.22;58.74
75146;BME280;63641;46.526;24.612;2023-03-14T00:21:13;97146.16;;;0.22;58.68
75146;BME280;63641;46.526;24.612;2023-03-14T00:23:41;97147.44;;;0.13;58.85
75146;BME280;63641;46.526;24.612;2023-03-14T00:26:11;97142.94;;;0.14;59.13
75146;BME280;63641;46.526;24.612;2023-03-14T00:28:38;97146.88;;;0.11;59.15
75146;BME280;63641;46.526;24.612;2023-03-14T00:31:07;97130.72;;;0.06;59.04
75146;BME280;63641;46.526;24.612;2023-03-14T00:33:34;97136.28;;;0.05;59.18
75146;BME280;63641;46.526;24.612;2023-03-14T00:36:27;97127.03;;;0.07;59.45
75146;BME280;63641;46.526;24.612;2023-03-14T00:38:54;97104.69;;;-0.10;59.31
75146;BME280;63641;46.526;24.612;2023-03-14T00:41:22;97130.53;;;0.08;59.47
75146;BME280;63641;46.526;24.612;2023-03-14T00:43:50;97117.66;;;0.05;59.32
75146;BME280;63641;46.526;24.612;2023-03-14T00:46:17;97113.59;;;0.02;59.45
75146;BME280;63641;46.526;24.612;2023-03-14T00:48:45;97121.28;;;0.10;59.47
75146;BME280;63641;46.526;24.612;2023-03-14T00:51:12;97108.19;;;0.09;59.44
75146;BME280;63641;46.526;24.612;2023-03-14T00:53:41;97122.91;;;0.11;59.01
75146;BME280;63641;46.526;24.612;2023-03-14T00:56:10;97121.28;;;0.10;59.22
75146;BME280;63641;46.526;24.612;2023-03-14T00:58:37;97112.84;;;0.13;59.08
75146;BME280;63641;46.526;24.612;2023-03-14T01:01:09;97108.19;;;0.09;59.07
75146;BME280;63641;46.526;24.612;2023-03-14T01:03:36;97102.50;;;0.05;59.26
75146;BME280;63641;46.526;24.612;2023-03-14T01:06:08;97109.25;;;0.08;59.23
75146;BME280;63641;46.526;24.612;2023-03-14T01:08:35;97115.94;;;0.10;59.31
75146;BME280;63641;46.526;24.612;2023-03-14T01:11:09;97110.25;;;0.07;59.29
75146;BME280;63641;46.526;24.612;2023-03-14T01:13:36;97104.56;;;0.03;59.42
75146;BME280;63641;46.526;24.612;2023-03-14T01:16:05;97101.31;;;0.01;59.47
75146;BME280;63641;46.526;24.612;2023-03-14T01:18:33;97098.66;;;0.01;59.85
75146;BME280;63641;46.526;24.612;2023-03-14T01:21:03;97098.06;;;-0.01;59.62
75146;BME280;63641;46.526;24.612;2023-03-14T01:23:30;97087.41;;;-0.01;59.66
75146;BME280;63641;46.526;24.612;2023-03-14T01:25:57;97078.25;;;-0.05;60.13
75146;BME280;63641;46.526;24.612;2023-03-14T01:28:23;97076.63;;;-0.06;59.96
75146;BME280;63641;46.526;24.612;2023-03-14T01:30:50;97056.22;;;-0.12;60.06
75146;BME280;63641;46.526;24.612;2023-03-14T01:33:16;97058.00;;;-0.06;60.20
75146;BME280;63641;46.526;24.612;2023-03-14T01:35:43;97058.44;;;-0.09;59.99
75146;BME280;63641;46.526;24.612;2023-03-14T01:38:10;97046.63;;;-0.13;60.15
75146;BME280;63641;46.526;24.612;2023-03-14T01:40:43;97048.69;;;-0.15;60.38
75146;BME280;63641;46.526;24.612;2023-03-14T01:43:18;97048.25;;;-0.12;60.30
75146;BME280;63641;46.526;24.612;2023-03-14T01:46:28;97046.19;;;-0.10;60.27
75146;BME280;63641;46.526;24.612;2023-03-14T01:49:01;97039.59;;;-0.08;60.18
75146;BME280;63641;46.526;24.612;2023-03-14T01:51:36;97028.59;;;-0.11;60.10
75146;BME280;63641;46.526;24.612;2023-03-14T01:54:14;97033.84;;;-0.05;60.29
75146;BME280;63641;46.526;24.612;2023-03-14T01:56:45;97018.41;;;-0.14;60.32
75146;BME280;63641;46.526;24.612;2023-03-14T01:59:14;97032.84;;;-0.04;60.47
75146;BME280;63641;46.526;24.612;2023-03-14T02:01:43;97027.28;;;-0.02;60.27
75146;BME280;63641;46.526;24.612;2023-03-14T02:04:11;97018.50;;;-0.03;60.32
75146;BME280;63641;46.526;24.612;2023-03-14T02:06:51;97029.06;;;0.04;60.38
75146;BME280;63641;46.526;24.612;2023-03-14T02:09:18;97032.09;;;0.08;60.46
75146;BME280;63641;46.526;24.612;2023-03-14T02:11:46;97025.38;;;0.05;60.69
75146;BME280;63641;46.526;24.612;2023-03-14T02:14:21;97021.81;;;0.11;60.49
75146;BME280;63641;46.526;24.612;2023-03-14T02:16:51;97020.19;;;0.10;60.63
75146;BME280;63641;46.526;24.612;2023-03-14T02:19:26;97022.03;;;0.10;60.81
75146;BME280;63641;46.526;24.612;2023-03-14T02:22:08;97019.31;;;0.16;60.71
75146;BME280;63641;46.526;24.612;2023-03-14T02:27:18;97029.13;;;0.16;60.66
75146;BME280;63641;46.526;24.612;2023-03-14T02:30:08;97019.31;;;0.16;60.90
75146;BME280;63641;46.526;24.612;2023-03-14T02:32:39;97016.03;;;0.14;61.16
75146;BME280;63641;46.526;24.612;2023-03-14T02:35:10;97023.81;;;0.16;61.02
75146;BME280;63641;46.526;24.612;2023-03-14T02:37:42;97008.91;;;0.15;61.15
75146;BME280;63641;46.526;24.612;2023-03-14T02:40:10;97006.44;;;0.13;61.17
75146;BME280;63641;46.526;24.612;2023-03-14T02:42:37;97007.84;;;0.16;61.34
75146;BME280;63641;46.526;24.612;2023-03-14T02:47:40;97011.19;;;0.11;61.46
75146;BME280;63641;46.526;24.612;2023-03-14T02:50:13;97009.97;;;0.07;61.57
75146;BME280;63641;46.526;24.612;2023-03-14T02:52:41;97017.31;;;0.12;61.33
75146;BME280;63641;46.526;24.612;2023-03-14T02:55:08;97014.28;;;0.08;61.76
75146;BME280;63641;46.526;24.612;2023-03-14T02:57:35;97015.28;;;0.07;61.63
75146;BME280;63641;46.526;24.612;2023-03-14T03:00:02;97011.63;;;0.08;61.56
75146;BME280;63641;46.526;24.612;2023-03-14T03:02:32;97014.28;;;0.08;61.65
75146;BME280;63641;46.526;24.612;2023-03-14T03:04:59;97017.97;;;0.07;61.64
75146;BME280;63641;46.526;24.612;2023-03-14T03:07:26;97022.25;;;0.08;61.68
75146;BME280;63641;46.526;24.612;2023-03-14T03:09:52;97014.50;;;0.07;61.60
75146;BME280;63641;46.526;24.612;2023-03-14T03:12:19;97007.19;;;0.02;61.91
75146;BME280;63641;46.526;24.612;2023-03-14T03:14:46;97004.97;;;-0.01;61.85
75146;BME280;63641;46.526;24.612;2023-03-14T03:17:12;97006.00;;;-0.02;62.26
75146;BME280;63641;46.526;24.612;2023-03-14T03:19:39;97009.34;;;-0.07;62.23
75146;BME280;63641;46.526;24.612;2023-03-14T03:22:06;97007.47;;;-0.06;62.37
75146;BME280;63641;46.526;24.612;2023-03-14T03:24:33;97002.59;;;-0.09;62.07
75146;BME280;63641;46.526;24.612;2023-03-14T03:27:00;97003.63;;;-0.10;62.55
75146;BME280;63641;46.526;24.612;2023-03-14T03:29:26;96997.72;;;-0.12;62.73
75146;BME280;63641;46.526;24.612;2023-03-14T03:31:53;96999.19;;;-0.16;62.66
75146;BME280;63641;46.526;24.612;2023-03-14T03:34:20;96998.81;;;-0.20;62.54
75146;BME280;63641;46.526;24.612;2023-03-14T03:36:47;96997.88;;;-0.26;62.74
75146;BME280;63641;46.526;24.612;2023-03-14T03:39:13;97004.94;;;-0.19;62.97
75146;BME280;63641;46.526;24.612;2023-03-14T03:41:41;96990.91;;;-0.27;62.90
75146;BME280;63641;46.526;24.612;2023-03-14T03:44:07;96992.56;;;-0.26;63.24
75146;BME280;63641;46.526;24.612;2023-03-14T03:46:34;97000.31;;;-0.24;62.93
75146;BME280;63641;46.526;24.612;2023-03-14T03:49:01;96990.91;;;-0.27;62.57
75146;BME280;63641;46.526;24.612;2023-03-14T03:51:27;96985.44;;;-0.32;62.49
75146;BME280;63641;46.526;24.612;2023-03-14T03:53:56;96979.75;;;-0.35;62.87
75146;BME280;63641;46.526;24.612;2023-03-14T03:56:22;96984.66;;;-0.32;62.80
75146;BME280;63641;46.526;24.612;2023-03-14T03:58:49;96977.34;;;-0.37;62.80
75146;BME280;63641;46.526;24.612;2023-03-14T04:01:16;96985.88;;;-0.35;62.86
75146;BME280;63641;46.526;24.612;2023-03-14T04:03:42;96990.03;;;-0.39;62.77
75146;BME280;63641;46.526;24.612;2023-03-14T04:06:12;96967.41;;;-0.48;62.89
75146;BME280;63641;46.526;24.612;2023-03-14T04:08:39;96981.44;;;-0.41;62.70
75146;BME280;63641;46.526;24.612;2023-03-14T04:11:08;96973.09;;;-0.44;62.74
75146;BME280;63641;46.526;24.612;2023-03-14T04:13:34;96970.06;;;-0.48;62.80
75146;BME280;63641;46.526;24.612;2023-03-14T04:16:01;96961.13;;;-0.54;62.82
75146;BME280;63641;46.526;24.612;2023-03-14T04:18:28;96961.56;;;-0.57;62.85
75146;BME280;63641;46.526;24.612;2023-03-14T04:20:57;96956.69;;;-0.60;63.13
75146;BME280;63641;46.526;24.612;2023-03-14T04:23:24;96974.03;;;-0.57;63.14
75146;BME280;63641;46.526;24.612;2023-03-14T04:25:51;96945.97;;;-0.71;63.40
75146;BME280;63641;46.526;24.612;2023-03-14T04:28:19;96958.97;;;-0.63;63.15
75146;BME280;63641;46.526;24.612;2023-03-14T04:30:46;96959.88;;;-0.69;63.32
75146;BME280;63641;46.526;24.612;2023-03-14T04:33:13;96964.94;;;-0.68;63.23
75146;BME280;63641;46.526;24.612;2023-03-14T04:35:44;96949.50;;;-0.78;63.54
75146;BME280;63641;46.526;24.612;2023-03-14T04:38:12;96973.72;;;-0.67;63.32
75146;BME280;63641;46.526;24.612;2023-03-14T04:40:40;96972.09;;;-0.68;63.40
75146;BME280;63641;46.526;24.612;2023-03-14T04:43:08;96973.97;;;-0.69;63.35
75146;BME280;63641;46.526;24.612;2023-03-14T04:45:36;96957.69;;;-0.79;63.29
75146;BME280;63641;46.526;24.612;2023-03-14T04:48:02;96965.22;;;-0.76;63.36
75146;BME280;63641;46.526;24.612;2023-03-14T04:50:29;96953.63;;;-0.82;63.28
75146;BME280;63641;46.526;24.612;2023-03-14T04:52:56;96962.41;;;-0.81;63.50
75146;BME280;63641;46.526;24.612;2023-03-14T04:55:23;96957.69;;;-0.79;63.46
75146;BME280;63641;46.526;24.612;2023-03-14T04:57:50;96955.66;;;-0.77;63.34
75146;BME280;63641;46.526;24.612;2023-03-14T05:00:16;96956.44;;;-0.77;63.56
75146;BME280;63641;46.526;24.612;2023-03-14T05:02:46;96947.44;;;-0.76;63.60
75146;BME280;63641;46.526;24.612;2023-03-14T05:05:13;96934.00;;;-0.81;63.57
75146;BME280;63641;46.526;24.612;2023-03-14T05:07:40;96936.66;;;-0.81;63.64
75146;BME280;63641;46.526;24.612;2023-03-14T05:10:07;96937.25;;;-0.79;63.61
75146;BME280;63641;46.526;24.612;2023-03-14T05:12:34;96944.63;;;-0.81;63.83
75146;BME280;63641;46.526;24.612;2023-03-14T05:15:01;96929.34;;;-0.85;64.08
75146;BME280;63641;46.526;24.612;2023-03-14T05:17:27;96947.50;;;-0.82;63.93
75146;BME280;63641;46.526;24.612;2023-03-14T05:19:54;96939.75;;;-0.84;63.87
75146;BME280;63641;46.526;24.612;2023-03-14T05:22:21;96941.97;;;-0.81;63.95
75146;BME280;63641;46.526;24.612;2023-03-14T05:24:48;96929.19;;;-0.90;63.72
75146;BME280;63641;46.526;24.612;2023-03-14T05:27:14;96938.28;;;-0.80;63.82
75146;BME280;63641;46.526;24.612;2023-03-14T05:29:41;96936.81;;;-0.76;63.51
75146;BME280;63641;46.526;24.612;2023-03-14T05:32:08;96940.66;;;-0.71;63.85
75146;BME280;63641;46.526;24.612;2023-03-14T05:34:35;96928.03;;;-0.76;63.80
75146;BME280;63641;46.526;24.612;2023-03-14T05:37:01;96935.94;;;-0.69;63.84
75146;BME280;63641;46.526;24.612;2023-03-14T05:39:28;96898.72;;;-0.88;63.99
75146;BME280;63641;46.526;24.612;2023-03-14T05:41:55;96920.22;;;-0.71;63.84
75146;BME280;63641;46.526;24.612;2023-03-14T05:44:22;96931.59;;;-0.64;63.77
75146;BME280;63641;46.526;24.612;2023-03-14T05:46:49;96932.34;;;-0.57;64.05
75146;BME280;63641;46.526;24.612;2023-03-14T05:49:17;96927.25;;;-0.58;63.69
75146;BME280;63641;46.526;24.612;2023-03-14T05:51:43;96931.84;;;-0.47;63.73
75146;BME280;63641;46.526;24.612;2023-03-14T05:54:10;96923.88;;;-0.47;64.11
75146;BME280;63641;46.526;24.612;2023-03-14T05:56:37;96920.31;;;-0.41;64.00
75146;BME280;63641;46.526;24.612;2023-03-14T05:59:03;96913.16;;;-0.40;64.04
75146;BME280;63641;46.526;24.612;2023-03-14T06:01:30;96916.53;;;-0.33;63.91
75146;BME280;63641;46.526;24.612;2023-03-14T06:03:57;96907.19;;;-0.36;63.82
75146;BME280;63641;46.526;24.612;2023-03-14T06:06:24;96921.22;;;-0.29;63.58
75146;BME280;63641;46.526;24.612;2023-03-14T06:08:50;96920.78;;;-0.26;63.50
75146;BME280;63641;46.526;24.612;2023-03-14T06:11:17;96914.53;;;-0.19;63.44
75146;BME280;63641;46.526;24.612;2023-03-14T06:13:44;96916.91;;;-0.11;63.66
75146;BME280;63641;46.526;24.612;2023-03-14T06:16:11;96902.59;;;-0.10;63.59
75146;BME280;63641;46.526;24.612;2023-03-14T06:18:38;96899.00;;;-0.04;63.45
75146;BME280;63641;46.526;24.612;2023-03-14T06:21:05;96900.09;;;0.07;63.31
75146;BME280;63641;46.526;24.612;2023-03-14T06:23:31;96901.06;;;0.12;63.02
75146;BME280;63641;46.526;24.612;2023-03-14T06:25:58;96898.81;;;0.28;62.91
75146;BME280;63641;46.526;24.612;2023-03-14T06:28:25;96890.94;;;0.33;63.34
75146;BME280;63641;46.526;24.612;2023-03-14T06:30:52;96891.38;;;0.48;63.22
75146;BME280;63641;46.526;24.612;2023-03-14T06:33:19;96876.06;;;0.55;62.70
75146;BME280;63641;46.526;24.612;2023-03-14T06:35:46;96880.41;;;0.68;62.61
75146;BME280;63641;46.526;24.612;2023-03-14T06:38:13;96889.66;;;0.77;62.79
75146;BME280;63641;46.526;24.612;2023-03-14T06:40:40;96884.47;;;0.82;62.46
75146;BME280;63641;46.526;24.612;2023-03-14T06:43:06;96886.91;;;0.95;62.70
75146;BME280;63641;46.526;24.612;2023-03-14T06:45:33;96884.63;;;1.11;62.56
75146;BME280;63641;46.526;24.612;2023-03-14T06:48:00;96873.59;;;1.19;62.55
75146;BME280;63641;46.526;24.612;2023-03-14T06:50:26;96872.09;;;1.35;62.62
75146;BME280;63641;46.526;24.612;2023-03-14T06:52:53;96860.38;;;1.48;62.58
75146;BME280;63641;46.526;24.612;2023-03-14T06:55:20;96855.56;;;1.61;62.18
75146;BME280;63641;46.526;24.612;2023-03-14T06:57:48;96857.28;;;1.79;62.16
75146;BME280;63641;46.526;24.612;2023-03-14T07:00:15;96857.09;;;1.98;62.31
75146;BME280;63641;46.526;24.612;2023-03-14T07:02:42;96857.16;;;2.14;62.17
75146;BME280;63641;46.526;24.612;2023-03-14T07:05:09;96855.09;;;2.33;61.96
75146;BME280;63641;46.526;24.612;2023-03-14T07:07:37;96841.19;;;2.48;62.07
75146;BME280;63641;46.526;24.612;2023-03-14T07:10:03;96842.50;;;2.62;62.07
75146;BME280;63641;46.526;24.612;2023-03-14T07:12:30;96839.66;;;2.86;61.64
75146;BME280;63641;46.526;24.612;2023-03-14T07:14:57;96831.38;;;3.04;61.61
75146;BME280;63641;46.526;24.612;2023-03-14T07:17:37;96826.34;;;3.25;61.09
75146;BME280;63641;46.526;24.612;2023-03-14T07:20:04;96833.38;;;3.53;60.60
75146;BME280;63641;46.526;24.612;2023-03-14T07:22:33;96830.72;;;3.75;60.18
75146;BME280;63641;46.526;24.612;2023-03-14T07:25:00;96826.41;;;3.96;59.65
75146;BME280;63641;46.526;24.612;2023-03-14T07:27:27;96812.94;;;4.13;59.48
75146;BME280;63641;46.526;24.612;2023-03-14T07:29:54;96811.81;;;4.35;58.67
75146;BME280;63641;46.526;24.612;2023-03-14T07:32:20;96818.53;;;4.70;58.71
75146;BME280;63641;46.526;24.612;2023-03-14T07:34:48;96818.50;;;4.97;57.68
75146;BME280;63641;46.526;24.612;2023-03-14T07:37:15;96806.28;;;5.22;57.29
75146;BME280;63641;46.526;24.612;2023-03-14T07:39:41;96809.69;;;5.54;56.65
75146;BME280;63641;46.526;24.612;2023-03-14T07:42:08;96802.25;;;5.77;56.11
75146;BME280;63641;46.526;24.612;2023-03-14T07:44:35;96796.47;;;6.05;55.96
75146;BME280;63641;46.526;24.612;2023-03-14T07:47:02;96801.91;;;6.36;55.28
75146;BME280;63641;46.526;24.612;2023-03-14T07:49:29;96780.16;;;6.63;54.85
75146;BME280;63641;46.526;24.612;2023-03-14T07:51:55;96779.88;;;6.90;54.47
75146;BME280;63641;46.526;24.612;2023-03-14T07:54:22;96782.50;;;7.21;53.86
75146;BME280;63641;46.526;24.612;2023-03-14T07:56:50;96780.53;;;7.47;53.80
75146;BME280;63641;46.526;24.612;2023-03-14T07:59:18;96768.63;;;7.73;53.40
75146;BME280;63641;46.526;24.612;2023-03-14T08:01:45;96773.59;;;8.01;52.66
75146;BME280;63641;46.526;24.612;2023-03-14T08:04:12;96769.94;;;8.26;51.80
75146;BME280;63641;46.526;24.612;2023-03-14T08:06:39;96763.53;;;8.56;51.25
75146;BME280;63641;46.526;24.612;2023-03-14T08:09:05;96752.00;;;8.79;50.38
75146;BME280;63641;46.526;24.612;2023-03-14T08:11:32;96756.59;;;9.08;49.96
75146;BME280;63641;46.526;24.612;2023-03-14T08:13:59;96750.16;;;9.33;49.06
75146;BME280;63641;46.526;24.612;2023-03-14T08:16:25;96746.34;;;9.58;48.28
75146;BME280;63641;46.526;24.612;2023-03-14T08:18:52;96729.41;;;9.71;47.81
75146;BME280;63641;46.526;24.612;2023-03-14T08:21:19;96742.81;;;10.00;47.02
75146;BME280;63641;46.526;24.612;2023-03-14T08:23:46;96737.94;;;10.21;46.65
75146;BME280;63641;46.526;24.612;2023-03-14T08:26:13;96736.56;;;10.43;46.04
75146;BME280;63641;46.526;24.612;2023-03-14T08:28:39;96726.59;;;10.57;45.70
75146;BME280;63641;46.526;24.612;2023-03-14T08:31:06;96724.28;;;10.83;45.30
75146;BME280;63641;46.526;24.612;2023-03-14T08:33:33;96723.28;;;11.06;44.73
75146;BME280;63641;46.526;24.612;2023-03-14T08:36:01;96721.03;;;11.27;44.41
75146;BME280;63641;46.526;24.612;2023-03-14T08:38:28;96714.19;;;11.44;43.98
75146;BME280;63641;46.526;24.612;2023-03-14T08:40:57;96700.13;;;11.55;43.94
75146;BME280;63641;46.526;24.612;2023-03-14T08:43:25;96698.72;;;11.72;43.66
75146;BME280;63641;46.526;24.612;2023-03-14T08:45:52;96686.78;;;11.87;43.55
75146;BME280;63641;46.526;24.612;2023-03-14T08:48:18;96697.66;;;12.09;43.10
75146;BME280;63641;46.526;24.612;2023-03-14T08:50:46;96703.72;;;12.28;43.18
75146;BME280;63641;46.526;24.612;2023-03-14T08:53:12;96697.69;;;12.54;42.63
75146;BME280;63641;46.526;24.612;2023-03-14T08:55:39;96695.31;;;12.84;42.18
75146;BME280;63641;46.526;24.612;2023-03-14T08:58:06;96701.00;;;13.04;41.76
75146;BME280;63641;46.526;24.612;2023-03-14T09:00:33;96691.53;;;13.24;41.32
75146;BME280;63641;46.526;24.612;2023-03-14T09:02:59;96683.78;;;13.49;41.16
75146;BME280;63641;46.526;24.612;2023-03-14T09:05:26;96682.72;;;13.76;41.01
75146;BME280;63641;46.526;24.612;2023-03-14T09:07:53;96679.91;;;14.07;40.29
75146;BME280;63641;46.526;24.612;2023-03-14T09:10:20;96684.88;;;14.40;40.06
75146;BME280;63641;46.526;24.612;2023-03-14T09:12:46;96677.50;;;14.66;39.46
75146;BME280;63641;46.526;24.612;2023-03-14T09:15:13;96676.78;;;14.87;38.95
75146;BME280;63641;46.526;24.612;2023-03-14T09:17:42;96669.22;;;15.10;38.34
75146;BME280;63641;46.526;24.612;2023-03-14T09:20:09;96650.88;;;15.19;37.64
75146;BME280;63641;46.526;24.612;2023-03-14T09:22:37;96662.66;;;15.40;37.68
75146;BME280;63641;46.526;24.612;2023-03-14T09:25:04;96662.66;;;15.40;37.36
75146;BME280;63641;46.526;24.612;2023-03-14T09:27:31;96658.13;;;15.44;37.48
75146;BME280;63641;46.526;24.612;2023-03-14T09:29:58;96660.66;;;15.50;37.28
75146;BME280;63641;46.526;24.612;2023-03-14T09:32:25;96645.78;;;15.47;37.00
75146;BME280;63641;46.526;24.612;2023-03-14T09:34:51;96638.06;;;15.49;36.68
75146;BME280;63641;46.526;24.612;2023-03-14T09:37:18;96629.44;;;15.47;36.59
75146;BME280;63641;46.526;24.612;2023-03-14T09:39:47;96639.63;;;15.59;36.40
75146;BME280;63641;46.526;24.612;2023-03-14T09:42:17;96624.84;;;15.68;36.10
75146;BME280;63641;46.526;24.612;2023-03-14T09:47:18;96630.91;;;15.95;35.62
75146;BME280;63641;46.526;24.612;2023-03-14T09:49:47;96626.81;;;16.01;35.51
75146;BME280;63641;46.526;24.612;2023-03-14T09:52:17;96624.84;;;16.10;35.32
75146;BME280;63641;46.526;24.612;2023-03-14T09:54:51;96615.91;;;16.22;35.06
75146;BME280;63641;46.526;24.612;2023-03-14T09:57:23;96616.81;;;16.26;34.79
75146;BME280;63641;46.526;24.612;2023-03-14T09:59:53;96606.81;;;16.30;34.81
75146;BME280;63641;46.526;24.612;2023-03-14T10:02:28;96609.50;;;16.39;34.76
75146;BME280;63641;46.526;24.612;2023-03-14T10:04:58;96585.25;;;16.37;34.58
75146;BME280;63641;46.526;24.612;2023-03-14T10:07:32;96597.69;;;16.59;34.42
75146;BME280;63641;46.526;24.612;2023-03-14T10:10:00;96602.06;;;16.73;34.24
75146;BME280;63641;46.526;24.612;2023-03-14T10:12:35;96603.38;;;16.87;33.87
75146;BME280;63641;46.526;24.612;2023-03-14T10:15:07;96585.50;;;16.90;33.78
75146;BME280;63641;46.526;24.612;2023-03-14T10:17:43;96587.22;;;16.95;33.56
75146;BME280;63641;46.526;24.612;2023-03-14T10:20:30;96589.59;;;16.96;33.49
75146;BME280;63641;46.526;24.612;2023-03-14T10:23:24;96581.41;;;16.96;33.37
75146;BME280;63641;46.526;24.612;2023-03-14T10:28:38;96565.72;;;17.05;32.76
75146;BME280;63641;46.526;24.612;2023-03-14T10:31:05;96561.59;;;17.11;32.59
75146;BME280;63641;46.526;24.612;2023-03-14T10:33:35;96558.53;;;17.13;32.13
75146;BME280;63641;46.526;24.612;2023-03-14T10:36:06;96548.50;;;17.05;31.81
75146;BME280;63641;46.526;24.612;2023-03-14T10:38:44;96543.72;;;17.02;31.99
75146;BME280;63641;46.526;24.612;2023-03-14T10:41:23;96536.97;;;17.11;32.18
75146;BME280;63641;46.526;24.612;2023-03-14T10:43:57;96531.28;;;17.29;31.74
75146;BME280;63641;46.526;24.612;2023-03-14T10:46:27;96523.16;;;17.45;31.58
75146;BME280;63641;46.526;24.612;2023-03-14T10:48:56;96514.25;;;17.60;31.40
75146;BME280;63641;46.526;24.612;2023-03-14T10:51:28;96517.72;;;17.85;31.03
75146;BME280;63641;46.526;24.612;2023-03-14T10:54:04;96507.84;;;17.96;31.19
75146;BME280;63641;46.526;24.612;2023-03-14T10:56:38;96503.66;;;18.15;31.11
75146;BME280;63641;46.526;24.612;2023-03-14T10:59:14;96492.13;;;18.21;30.45
75146;BME280;63641;46.526;24.612;2023-03-14T11:01:51;96502.47;;;18.28;30.40
75146;BME280;63641;46.526;24.612;2023-03-14T11:05:01;96488.34;;;18.42;30.02
75146;BME280;63641;46.526;24.612;2023-03-14T11:07:38;96488.72;;;18.56;30.01
75146;BME280;63641;46.526;24.612;2023-03-14T11:10:18;96474.94;;;18.52;29.83
75146;BME280;63641;46.526;24.612;2023-03-14T11:12:55;96475.97;;;18.48;29.57
75146;BME280;63641;46.526;24.612;2023-03-14T11:26:29;96437.53;;;18.13;29.59
75146;BME280;63641;46.526;24.612;2023-03-14T11:29:02;96431.97;;;18.09;29.55
75146;BME280;63641;46.526;24.612;2023-03-14T11:31:38;96424.53;;;18.09;29.32
75146;BME280;63641;46.526;24.612;2023-03-14T11:34:16;96422.16;;;18.08;29.33
75146;BME280;63641;46.526;24.612;2023-03-14T11:36:59;96421.34;;;18.07;29.24
75146;BME280;63641;46.526;24.612;2023-03-14T11:39:39;96413.69;;;18.13;29.10
75146;BME280;63641;46.526;24.612;2023-03-14T11:42:12;96406.06;;;18.22;28.90
75146;BME280;63641;46.526;24.612;2023-03-14T11:44:43;96407.22;;;18.37;28.73
75146;BME280;63641;46.526;24.612;2023-03-14T11:47:25;96393.00;;;18.47;28.70
75146;BME280;63641;46.526;24.612;2023-03-14T11:50:29;96390.88;;;18.56;28.64
75146;BME280;63641;46.526;24.612;2023-03-14T11:53:03;96369.75;;;18.57;28.53
75146;BME280;63641;46.526;24.612;2023-03-14T11:55:34;96370.09;;;18.55;28.23
75146;BME280;63641;46.526;24.612;2023-03-14T11:58:19;96364.91;;;18.50;28.35
75146;BME280;63641;46.526;24.612;2023-03-14T12:00:48;96352.69;;;18.48;27.96
75146;BME280;63641;46.526;24.612;2023-03-14T12:03:31;96356.97;;;18.45;27.93
75146;BME280;63641;46.526;24.612;2023-03-14T12:06:22;96329.28;;;18.50;27.79
75146;BME280;63641;46.526;24.612;2023-03-14T12:08:55;96335.47;;;18.63;27.51
75146;BME280;63641;46.526;24.612;2023-03-14T12:12:05;96328.00;;;18.79;27.50
75146;BME280;63641;46.526;24.612;2023-03-14T12:14:34;96321.31;;;18.96;27.34
75146;BME280;63641;46.526;24.612;2023-03-14T12:17:17;96322.09;;;19.16;27.09
75146;BME280;63641;46.526;24.612;2023-03-14T12:19:53;96310.25;;;19.31;26.75
75146;BME280;63641;46.526;24.612;2023-03-14T12:22:28;96312.19;;;19.50;26.63
75146;BME280;63641;46.526;24.612;2023-03-14T12:25:29;96304.53;;;19.60;25.94
75146;BME280;63641;46.526;24.612;2023-03-14T12:30:26;96291.69;;;19.64;25.90
75146;BME280;63641;46.526;24.612;2023-03-14T12:35:59;96284.72;;;19.70;25.32
75146;BME280;63641;46.526;24.612;2023-03-14T12:41:17;96272.00;;;19.62;25.17
75146;BME280;63641;46.526;24.612;2023-03-14T12:43:46;96258.16;;;19.54;25.26
75146;BME280;63641;46.526;24.612;2023-03-14T12:46:27;96256.19;;;19.55;24.78
75146;BME280;63641;46.526;24.612;2023-03-14T12:49:05;96246.09;;;19.59;24.91
75146;BME280;63641;46.526;24.612;2023-03-14T12:51:41;96249.34;;;19.65;24.65
75146;BME280;63641;46.526;24.612;2023-03-14T12:57:28;96240.06;;;19.73;24.35
75146;BME280;63641;46.526;24.612;2023-03-14T13:02:47;96223.72;;;19.80;23.88
75146;BME280;63641;46.526;24.612;2023-03-14T13:05:19;96222.88;;;19.76;23.44
75146;BME280;63641;46.526;24.612;2023-03-14T13:10:24;96213.69;;;19.91;23.55
75146;BME280;63641;46.526;24.612;2023-03-14T13:13:01;96215.41;;;19.99;23.33
75146;BME280;63641;46.526;24.612;2023-03-14T13:15:33;96211.91;;;20.02;23.61
75146;BME280;63641;46.526;24.612;2023-03-14T13:18:13;96199.34;;;20.01;23.74
75146;BME280;63641;46.526;24.612;2023-03-14T13:20:48;96198.28;;;20.10;23.60
75146;BME280;63641;46.526;24.612;2023-03-14T13:26:43;96186.94;;;20.11;23.53
75146;BME280;63641;46.526;24.612;2023-03-14T13:31:48;96196.50;;;19.94;23.63
75146;BME280;63641;46.526;24.612;2023-03-14T13:34:17;96191.63;;;19.84;23.58
75146;BME280;63641;46.526;24.612;2023-03-14T13:36:44;96197.78;;;19.74;23.56
75146;BME280;63641;46.526;24.612;2023-03-14T13:39:14;96190.50;;;19.62;23.46
75146;BME280;63641;46.526;24.612;2023-03-14T13:41:46;96188.31;;;19.48;23.77
75146;BME280;63641;46.526;24.612;2023-03-14T13:44:16;96194.41;;;19.38;23.70
75146;BME280;63641;46.526;24.612;2023-03-14T13:46:44;96178.53;;;19.28;24.03
75146;BME280;63641;46.526;24.612;2023-03-14T13:49:21;96187.22;;;19.30;23.98
75146;BME280;63641;46.526;24.612;2023-03-14T13:51:49;96184.47;;;19.30;24.06